CheckWX is a tool to help pilots better visualize weather data.  It is not intended as a substitute for an official pre-flight weather briefing.

22:35:48 UTC

KCXP TAF
Carson Airport
Carson City, Nevada, USA
KCXP 191732Z 1918/2018 26016G28KT P6SM SCT050 BKN150 WS020/25030KT TEMPO 1918/1922 VRB06KT FM200200 28010G16KT P6SM FEW070 BKN200 FM200500 28006KT P6SM BKN200 FM201200 VRB03KT P6SM SCT250

Oct-19@
18:00 UTC

Oct-19 @ 18:00 UTC

Oct-20@
02:00 UTC

Oct-20 @ 02:00 UTC

KCXP 191732Z 1918/2018 26016G28KT P6SM SCT050 BKN150 WS020/25030KT
Wind
  • 260° at 16 KTS
  • {Gusting to 28 KTS
Cloud Levels
  • Scattered at 5,000' AGL
  • Broken at 15,000' AGL

Oct-19@
18:00 UTC

Oct-19 @ 18:00 UTC

Oct-19@
22:00 UTC

Oct-19 @ 22:00 UTC

TEMPO 1918/1922 VRB06KT

Expired

Wind
  • Variable at 6 KTS

Oct-20@
02:00 UTC

Oct-20 @ 02:00 UTC

Oct-20@
05:00 UTC

Oct-20 @ 05:00 UTC

FM200200 28010G16KT P6SM FEW070 BKN200

From

From Standard forecast or significant change

Wind
  • 280° at 10 KTS
  • {Gusting to 16 KTS
Cloud Levels
  • Few at 7,000' AGL
  • Broken at 20,000' AGL

Oct-20@
05:00 UTC

Oct-20 @ 05:00 UTC

Oct-20@
12:00 UTC

Oct-20 @ 12:00 UTC

FM200500 28006KT P6SM BKN200

From

From Standard forecast or significant change

Wind
  • 280° at 6 KTS
Cloud Levels
  • Broken at 20,000' AGL

Oct-20@
12:00 UTC

Oct-20 @ 12:00 UTC

Oct-20@
18:00 UTC

Oct-20 @ 18:00 UTC

FM201200 VRB03KT P6SM SCT250

From

From Standard forecast or significant change

Wind
  • Variable at 3 KTS
Cloud Levels
  • Scattered at 25,000' AGL